Time;durP1;ratioP1;P1;durP2;ratioP2;P2;SDS_P1;SDS_P2;PMS_P1;PMS_P2;Temp;Humidity;BMP_temperature;BMP_pressure;BME280_temperature;BME280_humidity;BME280_pressure;Samples;Min_cycle;Max_cycle;Signal;HPM_P1;HPM_P2
2023/12/11 00:00:16;;;;;;;26.80;5.90;;;;;;;5.05;100.00;99243.00;7396838;19;20399;-41
2023/12/11 00:02:46;;;;;;;14.13;4.97;;;;;;;5.00;100.00;99248.81;7373912;19;20407;-40
2023/12/11 00:05:19;;;;;;;7.77;3.93;;;;;;;5.00;100.00;99255.59;7397112;19;20439;-40
2023/12/11 00:07:49;;;;;;;9.87;3.80;;;;;;;4.99;100.00;99259.84;7374543;19;20391;-38
2023/12/11 00:10:19;;;;;;;16.00;4.50;;;;;;;4.97;100.00;99265.72;7396123;19;20762;-40
2023/12/11 00:12:49;;;;;;;15.70;4.40;;;;;;;4.86;100.00;99273.81;7373841;19;20395;-39
2023/12/11 00:15:18;;;;;;;15.07;4.33;;;;;;;4.90;100.00;99286.72;7396635;19;20432;-42
2023/12/11 00:17:48;;;;;;;15.33;4.17;;;;;;;4.90;100.00;99292.72;7374063;19;20395;-40
2023/12/11 00:20:20;;;;;;;20.73;4.37;;;;;;;4.90;100.00;99302.94;7395893;19;20780;-40
2023/12/11 00:22:50;;;;;;;12.37;4.23;;;;;;;4.86;100.00;99314.72;7372906;19;20754;-39
2023/12/11 00:25:20;;;;;;;13.03;4.90;;;;;;;4.84;100.00;99336.78;7393688;19;20450;-39
2023/12/11 00:27:50;;;;;;;13.73;4.17;;;;;;;4.79;100.00;99342.50;7373559;19;20399;-39
2023/12/11 00:30:19;;;;;;;10.27;3.83;;;;;;;4.75;100.00;99345.72;7393113;19;20416;-44
2023/12/11 00:32:49;;;;;;;16.10;3.60;;;;;;;4.80;100.00;99349.34;7374505;19;20426;-39
2023/12/11 00:35:21;;;;;;;10.97;3.27;;;;;;;4.74;100.00;99360.19;7396349;19;20436;-41
2023/12/11 00:37:51;;;;;;;10.17;3.10;;;;;;;4.63;100.00;99372.50;7373422;19;20407;-37
2023/12/11 00:40:21;;;;;;;16.40;3.37;;;;;;;4.65;100.00;99375.09;7395475;19;20412;-39
2023/12/11 00:42:51;;;;;;;8.57;3.17;;;;;;;4.64;100.00;99381.91;7373168;19;20458;-40
2023/12/11 00:45:20;;;;;;;8.27;2.97;;;;;;;4.65;100.00;99382.78;7395795;19;20512;-39
2023/12/11 00:47:50;;;;;;;10.60;3.33;;;;;;;4.65;100.00;99385.34;7373422;19;20395;-40
2023/12/11 00:50:23;;;;;;;7.03;2.57;;;;;;;4.62;100.00;99383.53;7395318;19;20412;-39
2023/12/11 00:52:52;;;;;;;9.63;2.57;;;;;;;4.69;100.00;99388.13;7372661;19;21026;-40
2023/12/11 00:55:22;;;;;;;8.17;3.10;;;;;;;4.70;100.00;99376.19;7396971;19;20450;-40
2023/12/11 00:57:52;;;;;;;8.23;2.60;;;;;;;4.68;100.00;99373.56;7371705;19;20387;-39
2023/12/11 01:00:22;;;;;;;5.70;2.03;;;;;;;4.70;100.00;99369.41;7395213;19;20415;-41
2023/12/11 01:02:51;;;;;;;8.20;2.70;;;;;;;4.70;100.00;99364.31;7370733;19;20733;-40
2023/12/11 01:05:24;;;;;;;8.87;2.37;;;;;;;4.72;100.00;99372.91;7395330;19;20456;-39
2023/12/11 01:07:53;;;;;;;12.53;2.33;;;;;;;4.72;100.00;99378.00;7371450;19;20777;-40
2023/12/11 01:10:23;;;;;;;11.77;2.10;;;;;;;4.64;100.00;99379.38;7394214;19;20761;-40
2023/12/11 01:12:53;;;;;;;5.17;1.83;;;;;;;4.56;100.00;99391.78;7372949;19;20406;-40
2023/12/11 01:15:23;;;;;;;10.00;3.13;;;;;;;4.59;100.00;99391.06;7395495;19;20443;-41
2023/12/11 01:17:53;;;;;;;7.13;2.73;;;;;;;4.56;100.00;99403.72;7372434;19;20430;-39
2023/12/11 01:20:25;;;;;;;9.93;2.13;;;;;;;4.58;100.00;99399.53;7395022;19;20411;-40
2023/12/11 01:22:55;;;;;;;4.37;1.80;;;;;;;4.62;100.00;99393.75;7371508;19;20454;-42
2023/12/11 01:25:25;;;;;;;6.37;1.70;;;;;;;4.59;100.00;99403.84;7395100;19;20533;-42
2023/12/11 01:27:54;;;;;;;5.63;1.93;;;;;;;4.70;100.00;99402.63;7372323;19;20427;-39
2023/12/11 01:30:24;;;;;;;11.50;3.33;;;;;;;4.66;100.00;99410.97;7394357;19;20513;-40
2023/12/11 01:32:54;;;;;;;12.17;3.80;;;;;;;4.68;100.00;99413.59;7371912;19;20783;-39
2023/12/11 01:35:26;;;;;;;12.83;3.80;;;;;;;4.70;100.00;99420.53;7394675;19;20435;-39
2023/12/11 01:37:56;;;;;;;8.47;3.00;;;;;;;4.77;100.00;99410.56;7371531;19;21449;-41
2023/12/11 01:40:26;;;;;;;9.17;3.37;;;;;;;4.71;100.00;99418.81;7392423;19;20970;-41
2023/12/11 01:42:56;;;;;;;8.40;3.57;;;;;;;4.63;100.00;99423.63;7371062;19;20953;-40
2023/12/11 01:45:39;;;;;;;8.90;2.50;;;;;;;4.62;100.00;99426.97;7393634;19;20446;-39
2023/12/11 01:48:09;;;;;;;17.77;4.27;;;;;;;4.58;100.00;99431.06;7371054;19;20420;-39
2023/12/11 01:50:42;;;;;;;10.47;3.87;;;;;;;4.58;100.00;99425.94;7394555;19;20396;-39
2023/12/11 01:53:12;;;;;;;12.03;3.13;;;;;;;4.59;100.00;99432.81;7370816;19;20887;-40
2023/12/11 01:55:42;;;;;;;10.27;2.97;;;;;;;4.60;100.00;99436.22;7392903;19;20812;-40
2023/12/11 01:58:14;;;;;;;7.17;2.30;;;;;;;4.65;100.00;99437.31;7370451;19;20454;-39
2023/12/11 02:00:44;;;;;;;6.50;2.90;;;;;;;4.66;100.00;99444.16;7392964;19;20415;-39
2023/12/11 02:03:14;;;;;;;11.23;3.40;;;;;;;4.68;100.00;99427.22;7369533;19;20395;-39
2023/12/11 02:05:46;;;;;;;12.77;3.37;;;;;;;4.69;100.00;99433.22;7393255;19;20471;-40
2023/12/11 02:08:17;;;;;;;8.90;3.20;;;;;;;4.64;100.00;99444.91;7370579;19;20399;-42
2023/12/11 02:10:47;;;;;;;5.53;3.33;;;;;;;4.63;100.00;99454.28;7393974;19;20828;-39
2023/12/11 02:13:16;;;;;;;9.00;3.43;;;;;;;4.61;100.00;99455.88;7370411;19;20410;-39
2023/12/11 02:15:49;;;;;;;10.80;3.10;;;;;;;4.57;100.00;99465.06;7393198;19;20439;-40
2023/12/11 02:18:21;;;;;;;11.07;5.13;;;;;;;4.59;100.00;99467.69;7370277;19;20395;-38
2023/12/11 02:20:54;;;;;;;11.10;4.43;;;;;;;4.58;100.00;99471.94;7392716;19;20410;-41
2023/12/11 02:23:29;;;;;;;12.90;4.03;;;;;;;4.63;100.00;99464.50;7370145;19;20481;-39
2023/12/11 02:26:16;;;;;;;13.13;4.70;;;;;;;4.58;100.00;99473.63;7393329;19;20451;-38
2023/12/11 02:28:46;;;;;;;11.83;5.00;;;;;;;4.68;100.00;99492.81;7369452;19;20778;-40
2023/12/11 02:31:16;;;;;;;12.80;5.10;;;;;;;4.69;100.00;99495.44;7393045;19;20422;-39
2023/12/11 02:33:46;;;;;;;9.23;4.50;;;;;;;4.76;100.00;99494.00;7364292;19;20783;-41
2023/12/11 02:36:16;;;;;;;14.70;5.50;;;;;;;4.79;100.00;99495.84;7393223;19;20454;-38
2023/12/11 02:38:45;;;;;;;11.03;5.13;;;;;;;4.90;100.00;99494.63;7368515;19;20837;-39
2023/12/11 02:41:18;;;;;;;14.97;5.20;;;;;;;4.90;100.00;99494.63;7392915;19;21101;-41
2023/12/11 02:43:47;;;;;;;7.27;4.57;;;;;;;4.94;100.00;99513.53;7368531;19;20443;-39
2023/12/11 02:46:17;;;;;;;12.30;5.97;;;;;;;5.08;100.00;99507.34;7393335;19;20460;-39
2023/12/11 02:48:47;;;;;;;9.27;4.87;;;;;;;5.22;100.00;99507.94;7368282;19;20417;-42
2023/12/11 02:51:17;;;;;;;7.00;4.33;;;;;;;5.29;100.00;99498.00;7392394;19;20431;-40
2023/12/11 02:53:48;;;;;;;16.87;5.90;;;;;;;5.37;100.00;99497.50;7373418;19;21226;-39
2023/12/11 02:56:20;;;;;;;10.40;5.60;;;;;;;5.39;100.00;99503.56;7399484;19;20454;-40
2023/12/11 02:58:50;;;;;;;20.50;5.73;;;;;;;5.42;100.00;99510.50;7374863;19;20429;-40
2023/12/11 03:01:19;;;;;;;15.13;6.03;;;;;;;5.50;100.00;99504.00;7401472;19;20410;-39
2023/12/11 03:03:49;;;;;;;11.90;5.10;;;;;;;5.48;100.00;99515.88;7373485;19;20431;-38
2023/12/11 03:06:20;;;;;;;10.87;4.43;;;;;;;5.53;100.00;99514.38;7398680;19;20443;-39
2023/12/11 03:08:50;;;;;;;17.47;6.10;;;;;;;5.67;100.00;99511.53;7373882;19;20974;-39
2023/12/11 03:11:22;;;;;;;14.17;5.93;;;;;;;5.60;100.00;99510.41;7401534;19;20536;-38
2023/12/11 03:13:52;;;;;;;13.00;5.67;;;;;;;5.71;100.00;99502.28;7375531;19;20427;-40
2023/12/11 03:16:22;;;;;;;14.03;6.10;;;;;;;5.69;100.00;99507.34;7398948;19;20526;-39
2023/12/11 03:18:52;;;;;;;15.27;6.07;;;;;;;5.72;100.00;99504.91;7375143;19;20490;-40
2023/12/11 03:21:21;;;;;;;14.47;5.50;;;;;;;5.79;100.00;99506.03;7398380;19;20765;-39
2023/12/11 03:23:51;;;;;;;7.87;5.00;;;;;;;5.80;100.00;99500.97;7377512;19;20483;-39
2023/12/11 03:26:23;;;;;;;18.47;6.10;;;;;;;5.85;100.00;99498.59;7398058;19;20443;-39
2023/12/11 03:28:53;;;;;;;17.73;7.07;;;;;;;5.89;100.00;99502.19;7375857;19;20430;-40
2023/12/11 03:31:23;;;;;;;15.47;6.13;;;;;;;5.86;100.00;99517.41;7398180;19;20415;-40
2023/12/11 03:33:52;;;;;;;20.40;6.87;;;;;;;5.88;100.00;99515.78;7374617;19;20431;-39
2023/12/11 03:36:22;;;;;;;16.93;6.00;;;;;;;5.88;100.00;99521.78;7398829;19;20451;-39
2023/12/11 03:38:52;;;;;;;19.13;7.23;;;;;;;5.89;100.00;99522.66;7373635;19;20415;-40
2023/12/11 03:41:22;;;;;;;9.77;5.40;;;;;;;5.92;100.00;99521.09;7397861;19;20411;-39
2023/12/11 03:43:51;;;;;;;14.23;5.80;;;;;;;5.96;100.00;99524.66;7375825;19;20423;-40
2023/12/11 03:46:21;;;;;;;16.07;6.93;;;;;;;5.98;100.00;99523.03;7397497;19;20979;-39
2023/12/11 03:48:51;;;;;;;10.37;4.87;;;;;;;6.02;100.00;99514.69;7373642;19;20419;-39
2023/12/11 03:51:21;;;;;;;15.80;6.40;;;;;;;6.02;100.00;99517.25;7397432;19;20431;-39
2023/12/11 03:53:50;;;;;;;15.77;6.93;;;;;;;6.07;100.00;99513.16;7373339;19;20505;-42
2023/12/11 03:56:20;;;;;;;24.13;5.93;;;;;;;6.05;100.00;99517.38;7397989;19;20447;-40
2023/12/11 03:58:52;;;;;;;13.33;5.93;;;;;;;6.15;100.00;99510.06;7374187;19;20469;-40
2023/12/11 04:01:22;;;;;;;14.90;5.97;;;;;;;6.14;100.00;99505.72;7397359;19;20479;-38
2023/12/11 04:03:52;;;;;;;23.17;5.83;;;;;;;6.11;100.00;99509.06;7371637;19;20963;-42
2023/12/11 04:06:22;;;;;;;15.10;5.50;;;;;;;6.18;100.00;99502.50;7398578;19;20457;-39
2023/12/11 04:08:51;;;;;;;16.77;5.00;;;;;;;6.15;100.00;99504.94;7372964;19;20486;-40
2023/12/11 04:11:21;;;;;;;22.53;6.07;;;;;;;6.15;100.00;99516.03;7396669;19;20482;-44
2023/12/11 04:13:56;;;;;;;23.80;5.97;;;;;;;6.16;100.00;99517.78;7371476;19;20427;-40
2023/12/11 04:16:26;;;;;;;17.40;5.20;;;;;;;6.21;100.00;99511.16;7397934;19;20444;-42
2023/12/11 04:18:55;;;;;;;17.70;4.80;;;;;;;6.28;100.00;99519.97;7373449;19;20522;-42
2023/12/11 04:21:29;;;;;;;24.33;4.50;;;;;;;6.27;100.00;99530.16;7397359;19;21018;-40
2023/12/11 04:23:58;;;;;;;23.40;4.80;;;;;;;6.33;100.00;99523.59;7372883;19;20446;-41
2023/12/11 04:26:28;;;;;;;15.00;4.20;;;;;;;6.32;100.00;99520.97;7397440;19;20518;-39
2023/12/11 04:29:00;;;;;;;16.63;4.53;;;;;;;6.34;100.00;99525.34;7372692;19;20448;-39
2023/12/11 04:31:30;;;;;;;27.67;5.17;;;;;;;6.37;100.00;99516.91;7396489;19;20487;-39
2023/12/11 04:34:00;;;;;;;18.70;4.33;;;;;;;6.42;100.00;99520.50;7371149;19;20427;-39
2023/12/11 04:36:30;;;;;;;22.80;4.43;;;;;;;6.45;100.00;99510.38;7397128;19;20507;-39
2023/12/11 04:39:00;;;;;;;21.30;4.43;;;;;;;6.48;100.00;99514.75;7372877;19;20419;-40
2023/12/11 04:41:30;;;;;;;24.87;4.83;;;;;;;6.46;100.00;99511.25;7396791;19;20415;-41
2023/12/11 04:44:02;;;;;;;22.07;4.77;;;;;;;6.44;100.00;99510.31;7372542;19;20515;-39
2023/12/11 04:46:33;;;;;;;20.33;4.13;;;;;;;6.45;100.00;99519.75;7397324;19;20439;-41
2023/12/11 04:49:02;;;;;;;25.67;4.13;;;;;;;6.44;100.00;99515.44;7373746;19;20802;-39
2023/12/11 04:51:32;;;;;;;20.43;4.83;;;;;;;6.42;100.00;99509.38;7397161;19;20428;-39
2023/12/11 04:54:02;;;;;;;36.47;5.67;;;;;;;6.42;100.00;99509.38;7370500;19;20498;-41
2023/12/11 04:56:32;;;;;;;31.97;5.50;;;;;;;6.39;100.00;99511.81;7397075;19;20501;-40
2023/12/11 04:59:04;;;;;;;14.40;3.47;;;;;;;6.41;100.00;99523.03;7371706;19;20427;-40
2023/12/11 05:01:34;;;;;;;33.37;4.73;;;;;;;6.49;100.00;99531.88;7395533;19;20770;-39
2023/12/11 05:04:04;;;;;;;33.70;5.07;;;;;;;6.41;100.00;99521.31;7369905;19;21011;-39
2023/12/11 05:06:33;;;;;;;19.43;3.93;;;;;;;6.40;100.00;99521.28;7396752;19;20471;-39
2023/12/11 05:09:03;;;;;;;27.47;5.33;;;;;;;6.41;100.00;99529.00;7371671;19;20419;-39
2023/12/11 05:11:33;;;;;;;15.30;3.80;;;;;;;6.47;100.00;99524.13;7397708;19;20399;-40
2023/12/11 05:14:05;;;;;;;18.10;3.80;;;;;;;6.48;100.00;99528.41;7370920;19;20427;-38
2023/12/11 05:16:35;;;;;;;19.73;4.90;;;;;;;6.51;100.00;99535.34;7394586;19;20460;-37
2023/12/11 05:19:06;;;;;;;33.87;4.63;;;;;;;6.55;100.00;99536.34;7370991;19;20449;-41
2023/12/11 05:21:36;;;;;;;28.63;5.23;;;;;;;6.56;100.00;99538.13;7395163;19;20432;-38
2023/12/11 05:24:07;;;;;;;21.83;3.60;;;;;;;6.55;100.00;99534.66;7371155;19;20820;-39
2023/12/11 05:26:36;;;;;;;29.17;4.33;;;;;;;6.55;100.00;99533.78;7396167;19;20476;-38
2023/12/11 05:29:09;;;;;;;16.63;4.80;;;;;;;6.55;100.00;99534.66;7371246;19;20419;-38
2023/12/11 05:31:38;;;;;;;27.50;5.20;;;;;;;6.56;100.00;99533.00;7391944;19;20403;-39
2023/12/11 05:34:08;;;;;;;24.93;4.70;;;;;;;6.57;100.00;99530.47;7370204;19;20470;-39
2023/12/11 05:36:38;;;;;;;23.20;4.13;;;;;;;6.58;100.00;99519.41;7393468;19;21309;-40
2023/12/11 05:39:08;;;;;;;18.40;4.30;;;;;;;6.57;100.00;99525.34;7371558;19;20445;-40
2023/12/11 05:41:38;;;;;;;33.33;4.50;;;;;;;6.60;100.00;99525.47;7393140;19;20396;-39
2023/12/11 05:44:10;;;;;;;18.77;5.00;;;;;;;6.55;100.00;99520.97;7370322;19;20834;-41
2023/12/11 05:46:40;;;;;;;26.03;5.00;;;;;;;6.60;100.00;99524.59;7393948;19;20440;-39
2023/12/11 05:49:09;;;;;;;26.67;4.60;;;;;;;6.60;100.00;99522.91;7369493;19;20428;-39
2023/12/11 05:51:39;;;;;;;33.23;6.40;;;;;;;6.62;100.00;99523.81;7393298;19;20450;-39
2023/12/11 05:54:09;;;;;;;26.60;5.13;;;;;;;6.59;100.00;99521.16;7370199;19;20959;-39
2023/12/11 05:56:39;;;;;;;26.37;5.40;;;;;;;6.61;100.00;99518.63;7393247;19;20447;-39
2023/12/11 05:59:11;;;;;;;28.00;5.10;;;;;;;6.68;100.00;99522.31;7370779;19;20473;-38
2023/12/11 06:01:41;;;;;;;35.60;5.47;;;;;;;6.67;100.00;99510.31;7392778;19;20479;-39
2023/12/11 06:04:11;;;;;;;35.80;5.80;;;;;;;6.67;100.00;99511.19;7366607;19;20439;-39
2023/12/11 06:06:41;;;;;;;23.10;4.43;;;;;;;6.66;100.00;99506.88;7393208;19;20451;-38
2023/12/11 06:09:10;;;;;;;37.20;5.80;;;;;;;6.66;100.00;99511.16;7369472;19;20776;-38
2023/12/11 06:11:40;;;;;;;29.10;5.23;;;;;;;6.67;100.00;99521.44;7391945;19;20400;-38
2023/12/11 06:14:12;;;;;;;19.63;5.80;;;;;;;6.67;100.00;99518.00;7370068;19;20423;-38
2023/12/11 06:16:42;;;;;;;23.23;5.03;;;;;;;6.67;100.00;99510.31;7393933;19;20463;-38
2023/12/11 06:19:12;;;;;;;26.20;6.23;;;;;;;6.67;100.00;99510.31;7370319;19;20503;-40
2023/12/11 06:21:43;;;;;;;41.13;6.20;;;;;;;6.62;100.00;99503.31;7392937;19;20408;-39
2023/12/11 06:24:12;;;;;;;63.00;18.80;;;;;;;6.67;100.00;99500.06;7369914;19;20450;-39
2023/12/11 06:26:42;;;;;;;25.43;7.07;;;;;;;6.67;100.00;99495.81;7393471;19;20448;-39
2023/12/11 06:29:14;;;;;;;40.83;8.53;;;;;;;6.66;100.00;99495.75;7367694;19;20477;-39
2023/12/11 06:31:44;;;;;;;42.63;11.23;;;;;;;6.66;100.00;99488.06;7394112;19;20410;-39
2023/12/11 06:34:15;;;;;;;80.27;23.17;;;;;;;6.65;100.00;99491.47;7368945;19;20459;-39
2023/12/11 06:36:45;;;;;;;32.83;9.03;;;;;;;6.61;100.00;99490.44;7392880;19;20446;-39
2023/12/11 06:39:15;;;;;;;38.87;7.80;;;;;;;6.59;100.00;99479.28;7369029;19;20427;-40
2023/12/11 06:41:44;;;;;;;52.37;17.40;;;;;;;6.62;100.00;99485.38;7391404;19;20420;-39
2023/12/11 06:44:17;;;;;;;26.53;6.03;;;;;;;6.57;100.00;99479.22;7367687;19;20423;-39
2023/12/11 06:46:44;;;;;;;78.20;23.40;;;;;;;6.63;100.00;99478.59;7392626;19;20451;-40
2023/12/11 06:49:14;;;;;;;63.40;13.00;;;;;;;6.62;100.00;99475.13;7368640;19;20506;-38
2023/12/11 06:51:44;;;;;;;41.10;9.93;;;;;;;6.60;100.00;99474.22;7392432;19;20411;-39
2023/12/11 06:54:14;;;;;;;29.97;11.03;;;;;;;6.59;100.00;99481.84;7368162;19;20827;-38
2023/12/11 06:56:43;;;;;;;31.50;6.40;;;;;;;6.60;100.00;99479.34;7391908;19;20446;-42
2023/12/11 06:59:13;;;;;;;29.13;7.10;;;;;;;6.62;100.00;99479.41;7367999;19;20427;-39
2023/12/11 07:01:45;;;;;;;61.00;16.93;;;;;;;6.64;100.00;99479.44;7390581;19;20421;-40
2023/12/11 07:04:16;;;;;;;39.43;11.30;;;;;;;6.61;100.00;99486.22;7366567;19;20427;-38
2023/12/11 07:06:46;;;;;;;112.13;37.63;;;;;;;6.70;100.00;99482.22;7391349;19;20450;-39
2023/12/11 07:09:16;;;;;;;50.37;15.37;;;;;;;6.65;100.00;99474.38;7366552;19;20421;-40
2023/12/11 07:11:45;;;;;;;89.23;30.53;;;;;;;6.64;100.00;99484.56;7390374;19;20422;-39
2023/12/11 07:14:15;;;;;;;47.60;16.83;;;;;;;6.62;100.00;99480.25;7368805;19;20426;-40
2023/12/11 07:16:47;;;;;;;141.33;48.17;;;;;;;6.62;100.00;99480.25;7391137;19;20815;-38
2023/12/11 07:19:19;;;;;;;34.10;10.57;;;;;;;6.58;100.00;99470.72;7368811;19;20451;-40
2023/12/11 07:21:49;;;;;;;31.17;7.63;;;;;;;6.55;100.00;99464.59;7390617;19;20756;-40
2023/12/11 07:24:19;;;;;;;137.70;50.03;;;;;;;6.60;100.00;99463.06;7367481;19;20485;-40
2023/12/11 07:26:48;;;;;;;29.63;8.03;;;;;;;6.57;100.00;99463.81;7390812;19;20451;-38
2023/12/11 07:29:18;;;;;;;42.13;8.80;;;;;;;6.68;100.00;99455.69;7368116;19;20498;-39
2023/12/11 07:31:50;;;;;;;36.70;7.33;;;;;;;6.70;100.00;99454.03;7390117;19;20404;-38
2023/12/11 07:34:21;;;;;;;79.50;24.27;;;;;;;6.72;100.00;99442.16;7366596;19;20435;-38
2023/12/11 07:36:53;;;;;;;31.50;8.20;;;;;;;6.74;100.00;99445.66;7389199;19;20403;-38
2023/12/11 07:39:22;;;;;;;31.93;10.80;;;;;;;6.71;100.00;99440.38;7371263;19;20435;-37
2023/12/11 07:41:52;;;;;;;37.37;6.60;;;;;;;6.69;100.00;99442.03;7396818;19;20886;-38
2023/12/11 07:44:22;;;;;;;30.27;9.20;;;;;;;6.77;100.00;99440.63;7371277;19;20515;-38
2023/12/11 07:46:54;;;;;;;28.03;9.00;;;;;;;6.75;100.00;99432.88;7397120;19;20491;-39
2023/12/11 07:49:24;;;;;;;45.97;8.00;;;;;;;6.74;100.00;99436.28;7374397;19;20886;-41
2023/12/11 07:51:54;;;;;;;157.00;59.70;;;;;;;6.83;100.00;99432.28;7396380;19;20410;-40
2023/12/11 07:54:24;;;;;;;26.10;8.30;;;;;;;6.84;100.00;99432.34;7374059;19;20510;-42
2023/12/11 07:56:55;;;;;;;91.67;32.77;;;;;;;6.98;100.00;99440.50;7398258;19;20400;-40
2023/12/11 07:59:24;;;;;;;114.53;43.77;;;;;;;7.00;100.00;99433.75;7373651;19;20995;-40
2023/12/11 08:01:57;;;;;;;72.67;26.13;;;;;;;7.11;100.00;99434.13;7396431;19;20846;-40
2023/12/11 08:04:27;;;;;;;55.47;16.40;;;;;;;7.02;100.00;99426.09;7372370;19;20436;-41
2023/12/11 08:06:56;;;;;;;73.57;21.00;;;;;;;6.98;100.00;99437.94;7397071;19;20442;-41
2023/12/11 08:09:26;;;;;;;52.37;17.37;;;;;;;6.82;100.00;99433.97;7374262;19;20423;-40
2023/12/11 08:11:56;;;;;;;44.00;15.73;;;;;;;6.88;100.00;99430.75;7398831;19;20427;-41
2023/12/11 08:14:26;;;;;;;42.87;10.53;;;;;;;6.85;100.00;99428.06;7375610;19;20434;-39
2023/12/11 08:16:58;;;;;;;58.03;21.10;;;;;;;6.93;100.00;99423.22;7396756;19;20412;-41
2023/12/11 08:19:28;;;;;;;100.43;35.53;;;;;;;6.94;100.00;99420.72;7374706;19;21018;-39
2023/12/11 08:21:58;;;;;;;26.17;7.87;;;;;;;6.86;100.00;99419.56;7395830;19;20868;-41
2023/12/11 08:24:28;;;;;;;32.50;9.00;;;;;;;6.93;100.00;99416.41;7375622;19;20457;-39
2023/12/11 08:26:58;;;;;;;27.53;10.20;;;;;;;6.96;100.00;99420.75;7394959;19;20420;-37
2023/12/11 08:29:27;;;;;;;37.40;8.23;;;;;;;6.93;100.00;99423.22;7374474;19;20427;-39
2023/12/11 08:32:00;;;;;;;26.10;8.80;;;;;;;7.02;100.00;99419.28;7396018;19;20862;-41
2023/12/11 08:34:29;;;;;;;23.57;7.30;;;;;;;7.02;100.00;99415.84;7374942;19;20502;-42
2023/12/11 08:36:59;;;;;;;37.93;12.30;;;;;;;7.07;100.00;99413.47;7396113;19;20852;-42
2023/12/11 08:39:29;;;;;;;52.50;19.33;;;;;;;7.08;100.00;99416.06;7375115;19;20443;-41
2023/12/11 08:41:59;;;;;;;25.93;8.83;;;;;;;7.07;100.00;99409.19;7396008;19;20420;-40
2023/12/11 08:44:29;;;;;;;33.33;10.87;;;;;;;6.96;100.00;99413.06;7372021;19;20411;-39
2023/12/11 08:47:01;;;;;;;50.90;18.20;;;;;;;7.01;100.00;99403.84;7398699;19;20791;-40
2023/12/11 08:49:31;;;;;;;28.97;7.60;;;;;;;7.02;100.00;99408.16;7374624;19;20486;-40
2023/12/11 08:52:01;;;;;;;31.03;10.90;;;;;;;7.11;100.00;99399.91;7393543;19;20400;-41
2023/12/11 08:54:31;;;;;;;22.63;6.60;;;;;;;7.12;100.00;99410.22;7374458;19;21074;-41
2023/12/11 08:57:01;;;;;;;75.37;30.37;;;;;;;7.11;100.00;99399.91;7395731;19;20408;-41
2023/12/11 08:59:34;;;;;;;230.43;99.20;;;;;;;7.10;100.00;99399.03;7374411;19;20498;-39
2023/12/11 09:02:06;;;;;;;31.53;10.30;;;;;;;7.11;100.00;99393.09;7395334;19;20778;-40
2023/12/11 09:04:37;;;;;;;101.13;40.70;;;;;;;7.18;100.00;99401.00;7374180;19;20427;-40
2023/12/11 09:07:07;;;;;;;27.27;10.30;;;;;;;7.12;100.00;99396.50;7396494;19;20432;-39
2023/12/11 09:09:37;;;;;;;19.73;6.90;;;;;;;7.07;100.00;99393.78;7374959;19;20446;-39
2023/12/11 09:12:07;;;;;;;55.53;19.97;;;;;;;7.16;100.00;99396.69;7396199;19;20442;-38
2023/12/11 09:14:56;;;;;;;62.10;21.50;;;;;;;7.13;100.00;99386.31;7373619;19;20459;-38
2023/12/11 09:17:28;;;;;;;78.87;29.33;;;;;;;7.15;100.00;99397.50;7373423;19;20403;-38
2023/12/11 09:19:59;;;;;;;29.50;8.10;;;;;;;7.12;100.00;99392.25;7391963;19;20421;-38
2023/12/11 09:22:29;;;;;;;27.33;8.80;;;;;;;7.07;100.00;99398.06;7371905;19;20404;-37
2023/12/11 09:24:59;;;;;;;32.43;10.23;;;;;;;7.10;100.00;99399.03;7393288;19;20833;-38
2023/12/11 09:27:29;;;;;;;99.53;33.33;;;;;;;7.20;100.00;99396.78;7372324;19;20951;-39
2023/12/11 09:29:59;;;;;;;40.60;13.57;;;;;;;7.18;100.00;99395.84;7392846;19;20427;-39
2023/12/11 09:32:31;;;;;;;28.90;9.60;;;;;;;7.20;100.00;99394.22;7373348;19;20407;-37
2023/12/11 09:35:01;;;;;;;31.47;8.43;;;;;;;7.16;100.00;99399.25;7392902;19;20515;-40
2023/12/11 09:37:31;;;;;;;104.13;38.73;;;;;;;7.15;100.00;99399.19;7373060;19;20422;-41
2023/12/11 09:40:01;;;;;;;39.67;12.50;;;;;;;7.14;100.00;99400.88;7395195;19;20776;-41
2023/12/11 09:42:32;;;;;;;23.10;6.90;;;;;;;7.06;100.00;99404.88;7372068;19;20407;-41
2023/12/11 09:45:03;;;;;;;30.50;8.10;;;;;;;7.04;100.00;99403.97;7391196;19;20514;-41
2023/12/11 09:47:41;;;;;;;27.70;6.97;;;;;;;7.03;100.00;99403.06;7374019;19;20746;-39
2023/12/11 09:50:13;;;;;;;23.93;6.23;;;;;;;7.00;100.00;99410.69;7395035;19;20407;-39
2023/12/11 09:52:44;;;;;;;27.83;9.23;;;;;;;7.02;100.00;99408.16;7370487;19;20418;-39
2023/12/11 09:55:15;;;;;;;19.77;5.07;;;;;;;7.00;100.00;99407.22;7393505;19;20435;-38
2023/12/11 09:57:45;;;;;;;43.67;13.40;;;;;;;7.04;100.00;99409.09;7370811;19;20973;-39
2023/12/11 10:00:16;;;;;;;17.57;5.80;;;;;;;7.01;100.00;99401.28;7392273;19;20416;-41
2023/12/11 10:02:50;;;;;;;23.17;4.47;;;;;;;7.08;100.00;99403.22;7368758;19;20442;-40
2023/12/11 10:05:25;;;;;;;15.83;4.90;;;;;;;7.04;100.00;99401.41;7392606;19;20447;-39
2023/12/11 10:07:55;;;;;;;63.57;23.60;;;;;;;7.11;100.00;99400.78;7371498;19;20505;-40
2023/12/11 10:10:31;;;;;;;22.53;5.63;;;;;;;7.15;100.00;99402.66;7392390;19;20407;-39
2023/12/11 10:13:01;;;;;;;29.00;8.57;;;;;;;7.14;100.00;99406.00;7369738;19;20410;-41
2023/12/11 10:15:32;;;;;;;30.73;8.23;;;;;;;7.14;100.00;99406.00;7393331;19;20795;-40
2023/12/11 10:18:08;;;;;;;19.63;5.60;;;;;;;7.16;100.00;99404.38;7370851;19;20419;-40
2023/12/11 10:20:39;;;;;;;21.53;6.97;;;;;;;7.20;100.00;99399.34;7393781;19;20442;-42
2023/12/11 10:23:16;;;;;;;20.77;5.93;;;;;;;7.16;100.00;99396.69;7370167;19;21162;-41
2023/12/11 10:25:47;;;;;;;25.60;8.17;;;;;;;7.26;100.00;99394.41;7392436;19;20443;-39
2023/12/11 10:28:19;;;;;;;40.53;12.70;;;;;;;7.27;100.00;99391.91;7370410;19;20436;-40
2023/12/11 10:30:54;;;;;;;29.23;6.97;;;;;;;7.29;100.00;99399.66;7389571;19;20403;-38
2023/12/11 10:33:30;;;;;;;34.67;5.17;;;;;;;7.33;100.00;99380.97;7367610;19;20784;-40
2023/12/11 10:36:16;;;;;;;25.93;6.03;;;;;;;7.39;100.00;99383.72;7392215;19;20451;-40
2023/12/11 10:38:46;;;;;;;22.33;4.87;;;;;;;7.36;100.00;99381.06;7369044;19;20419;-39
2023/12/11 10:41:27;;;;;;;21.00;6.37;;;;;;;7.47;100.00;99372.84;7390050;19;20482;-38
2023/12/11 10:43:56;;;;;;;31.90;8.80;;;;;;;7.50;100.00;99370.38;7371062;19;20419;-41
2023/12/11 10:46:45;;;;;;;21.50;6.87;;;;;;;7.54;100.00;99370.53;7392445;19;20859;-38
2023/12/11 10:49:19;;;;;;;19.07;6.27;;;;;;;7.49;100.00;99361.81;7371093;19;21006;-39
2023/12/11 10:51:49;;;;;;;22.83;4.23;;;;;;;7.47;100.00;99354.88;7391567;19;20741;-39
2023/12/11 10:54:19;;;;;;;27.87;8.73;;;;;;;7.47;100.00;99354.88;7370538;19;20450;-37
2023/12/11 10:56:50;;;;;;;35.40;7.00;;;;;;;7.47;100.00;99342.03;7392113;19;20522;-39
2023/12/11 10:59:20;;;;;;;13.23;3.87;;;;;;;7.40;100.00;99346.97;7370157;19;20916;-40
2023/12/11 11:01:50;;;;;;;22.23;5.53;;;;;;;7.41;100.00;99338.47;7389378;19;20417;-39
2023/12/11 11:04:23;;;;;;;17.33;4.53;;;;;;;7.43;100.00;99335.94;7366891;19;20427;-39
2023/12/11 11:06:57;;;;;;;27.00;5.53;;;;;;;7.48;100.00;99333.53;7390180;19;20507;-40
2023/12/11 11:09:32;;;;;;;25.07;5.90;;;;;;;7.49;100.00;99320.72;7369963;19;20428;-38
2023/12/11 11:12:08;;;;;;;18.83;5.73;;;;;;;7.48;100.00;99318.16;7391883;19;20781;-38
2023/12/11 11:14:47;;;;;;;21.30;3.83;;;;;;;7.50;100.00;99306.22;7375691;19;20794;-39
2023/12/11 11:17:17;;;;;;;25.20;6.60;;;;;;;7.54;100.00;99297.81;7376164;19;20399;-38
2023/12/11 11:20:15;;;;;;;10.57;3.30;;;;;;;7.51;100.00;99292.56;7397898;19;20403;-40
2023/12/11 11:22:49;;;;;;;17.13;4.70;;;;;;;7.54;100.00;99295.22;7376442;19;20427;-38
2023/12/11 11:25:38;;;;;;;20.87;4.00;;;;;;;7.64;100.00;99276.69;7398356;19;20479;-38
2023/12/11 11:28:08;;;;;;;12.60;3.50;;;;;;;7.66;100.00;99262.22;7378413;19;20953;-42
2023/12/11 11:30:55;;;;;;;21.37;4.70;;;;;;;7.84;100.00;99258.44;7395556;19;20484;-38
2023/12/11 11:33:25;;;;;;;30.83;4.37;;;;;;;7.79;100.00;99236.91;7375215;19;20422;-39
2023/12/11 11:35:59;;;;;;;11.30;3.87;;;;;;;7.84;100.00;99214.78;7397843;19;20812;-41
2023/12/11 11:38:55;;;;;;;22.37;3.90;;;;;;;7.88;100.00;99203.78;7375785;19;20439;-40
2023/12/11 11:41:26;;;;;;;20.03;3.53;;;;;;;7.93;100.00;99193.63;7397440;19;20422;-40